Station Historical Data
Daily Summary for May 11, 2017 Units:  Both    English   Metric
« Previous Day
Next Day »
Daily Weekly Monthly Yearly Custom
  High: Low: Average:
Temperature: 60.8 °F /  16 °C 43.6 °F /  6.4 °C 51.6 °F /  10.9 °C
Dew Point: 42.3 °F /  5.7 °C 33.2 °F /  0.7 °C 37.7 °F /  3.2 °C
Humidity: 70% 46% 59%
Wind Speed: 13.0mph /  20.9km/h - 4.6mph /  7.4km/h
Wind Gust: 18.0mph /  29km/h - -
Wind- - ENE
Pressure: 30.06 in /  1017.8 hPa 29.94 in /  1013.8 hPa -
Precipitation: 0.00 in /  0 mm    
Historical Graphs
 
 
Tabular Data for May 11, 2017
Time Temperature Dew Point Pressure Wind Wind Speed Wind Gust Humidity Rainfall Rate (Hourly)
00:04 45.0 °F /  7.2 °C 33.5 °F /  0.8 °C 30.06in /  1017.8hPa East 2.0mph /  3.2km/h 5.0mph /  8km/h 64% 0.00in /  0mm
00:09 45.1 °F /  7.3 °C 33.6 °F /  0.9 °C 30.06in /  1017.8hPa ENE 2.0mph /  3.2km/h 5.0mph /  8km/h 64% 0.00in /  0mm
00:14 45.0 °F /  7.2 °C 33.5 °F /  0.8 °C 30.06in /  1017.8hPa East 2.0mph /  3.2km/h 5.0mph /  8km/h 64% 0.00in /  0mm
00:19 44.9 °F /  7.2 °C 33.5 °F /  0.8 °C 30.06in /  1017.8hPa Calm   3.0mph /  4.8km/h 64% 0.00in /  0mm
00:24 44.8 °F /  7.1 °C 33.4 °F /  0.8 °C 30.06in /  1017.8hPa East 2.0mph /  3.2km/h 3.0mph /  4.8km/h 64% 0.00in /  0mm
00:29 44.9 °F /  7.2 °C 33.8 °F /  1 °C 30.06in /  1017.8hPa East 1.0mph /  1.6km/h 5.0mph /  8km/h 65% 0.00in /  0mm
00:34 44.7 °F /  7.1 °C 33.6 °F /  0.9 °C 30.06in /  1017.8hPa East 2.0mph /  3.2km/h 3.0mph /  4.8km/h 65% 0.00in /  0mm
00:39 44.6 °F /  7 °C 33.6 °F /  0.9 °C 30.06in /  1017.8hPa Calm   3.0mph /  4.8km/h 65% 0.00in /  0mm
00:44 44.4 °F /  6.9 °C 33.7 °F /  0.9 °C 30.05in /  1017.5hPa Calm   3.0mph /  4.8km/h 66% 0.00in /  0mm
00:49 44.4 °F /  6.9 °C 33.7 °F /  0.9 °C 30.05in /  1017.5hPa Calm   2.0mph /  3.2km/h 66% 0.00in /  0mm
00:54 44.3 °F /  6.8 °C 34.0 °F /  1.1 °C 30.05in /  1017.5hPa ENE 1.0mph /  1.6km/h 4.0mph /  6.4km/h 67% 0.00in /  0mm
00:59 44.3 °F /  6.8 °C 34.0 °F /  1.1 °C 30.04in /  1017.2hPa ENE 2.0mph /  3.2km/h 4.0mph /  6.4km/h 67% 0.00in /  0mm
01:04 44.4 °F /  6.9 °C 33.7 °F /  0.9 °C 30.04in /  1017.2hPa ENE 2.0mph /  3.2km/h 5.0mph /  8km/h 66% 0.00in /  0mm
01:09 44.4 °F /  6.9 °C 33.7 °F /  0.9 °C 30.04in /  1017.2hPa ENE 1.0mph /  1.6km/h 4.0mph /  6.4km/h 66% 0.00in /  0mm
01:14 44.4 °F /  6.9 °C 33.4 °F /  0.8 °C 30.04in /  1017.2hPa ENE 3.0mph /  4.8km/h 5.0mph /  8km/h 65% 0.00in /  0mm
01:19 44.5 °F /  6.9 °C 33.5 °F /  0.8 °C 30.04in /  1017.2hPa ENE 2.0mph /  3.2km/h 6.0mph /  9.7km/h 65% 0.00in /  0mm
01:24 44.6 °F /  7 °C 33.2 °F /  0.7 °C 30.04in /  1017.2hPa NE 1.0mph /  1.6km/h 6.0mph /  9.7km/h 64% 0.00in /  0mm
01:29 44.6 °F /  7 °C 33.2 °F /  0.7 °C 30.04in /  1017.2hPa Calm   3.0mph /  4.8km/h 64% 0.00in /  0mm
01:34 44.2 °F /  6.8 °C 33.2 °F /  0.7 °C 30.04in /  1017.2hPa Calm   1.0mph /  1.6km/h 65% 0.00in /  0mm
01:39 44.1 °F /  6.7 °C 33.5 °F /  0.8 °C 30.04in /  1017.2hPa NE 1.0mph /  1.6km/h 5.0mph /  8km/h 66% 0.00in /  0mm
01:44 43.9 °F /  6.6 °C 33.6 °F /  0.9 °C 30.04in /  1017.2hPa NE 1.0mph /  1.6km/h 5.0mph /  8km/h 67% 0.00in /  0mm
01:49 43.7 °F /  6.5 °C 33.5 °F /  0.8 °C 30.03in /  1016.8hPa Calm   3.0mph /  4.8km/h 67% 0.00in /  0mm
01:54 43.6 °F /  6.4 °C 33.7 °F /  0.9 °C 30.03in /  1016.8hPa NE 1.0mph /  1.6km/h 4.0mph /  6.4km/h 68% 0.00in /  0mm
01:59 43.7 °F /  6.5 °C 33.8 °F /  1 °C 30.02in /  1016.5hPa NE 1.0mph /  1.6km/h 4.0mph /  6.4km/h 68% 0.00in /  0mm
02:04 43.8 °F /  6.6 °C 33.9 °F /  1.1 °C 30.02in /  1016.5hPa NE 1.0mph /  1.6km/h 4.0mph /  6.4km/h 68% 0.00in /  0mm
02:09 43.9 °F /  6.6 °C 33.6 °F /  0.9 °C 30.02in /  1016.5hPa NE 3.0mph /  4.8km/h 5.0mph /  8km/h 67% 0.00in /  0mm
02:14 44.0 °F /  6.7 °C 33.7 °F /  0.9 °C 30.02in /  1016.5hPa NE 3.0mph /  4.8km/h 7.0mph /  11.3km/h 67% 0.00in /  0mm
02:19 44.1 °F /  6.7 °C 33.8 °F /  1 °C 30.02in /  1016.5hPa NE 3.0mph /  4.8km/h 7.0mph /  11.3km/h 67% 0.00in /  0mm
02:24 44.2 °F /  6.8 °C 33.6 °F /  0.9 °C 30.02in /  1016.5hPa ENE 7.0mph /  11.3km/h 7.0mph /  11.3km/h 66% 0.00in /  0mm
02:29 44.1 °F /  6.7 °C 33.5 °F /  0.8 °C 30.02in /  1016.5hPa ENE 2.0mph /  3.2km/h 8.0mph /  12.9km/h 66% 0.00in /  0mm
02:34 44.1 °F /  6.7 °C 33.5 °F /  0.8 °C 30.02in /  1016.5hPa NE 5.0mph /  8km/h 10.0mph /  16.1km/h 66% 0.00in /  0mm
02:39 44.1 °F /  6.7 °C 33.5 °F /  0.8 °C 30.01in /  1016.1hPa NE 5.0mph /  8km/h 10.0mph /  16.1km/h 66% 0.00in /  0mm
02:44 44.0 °F /  6.7 °C 33.4 °F /  0.8 °C 30.01in /  1016.1hPa NE 3.0mph /  4.8km/h 10.0mph /  16.1km/h 66% 0.00in /  0mm
02:49 44.0 °F /  6.7 °C 33.7 °F /  0.9 °C 30.01in /  1016.1hPa ENE 3.0mph /  4.8km/h 9.0mph /  14.5km/h 67% 0.00in /  0mm
02:54 44.0 °F /  6.7 °C 33.7 °F /  0.9 °C 30.01in /  1016.1hPa NE 4.0mph /  6.4km/h 8.0mph /  12.9km/h 67% 0.00in /  0mm
02:59 44.0 °F /  6.7 °C 33.7 °F /  0.9 °C 30.00in /  1015.8hPa ENE 4.0mph /  6.4km/h 8.0mph /  12.9km/h 67% 0.00in /  0mm
03:04 44.1 °F /  6.7 °C 33.5 °F /  0.8 °C 30.00in /  1015.8hPa SE 2.0mph /  3.2km/h 9.0mph /  14.5km/h 66% 0.00in /  0mm
03:09 44.1 °F /  6.7 °C 33.5 °F /  0.8 °C 30.00in /  1015.8hPa ENE 4.0mph /  6.4km/h 10.0mph /  16.1km/h 66% 0.00in /  0mm
03:14 44.1 °F /  6.7 °C 33.5 °F /  0.8 °C 30.01in /  1016.1hPa ENE 4.0mph /  6.4km/h 10.0mph /  16.1km/h 66% 0.00in /  0mm
03:19 44.2 °F /  6.8 °C 33.6 °F /  0.9 °C 30.00in /  1015.8hPa ENE 4.0mph /  6.4km/h 9.0mph /  14.5km/h 66% 0.00in /  0mm
03:24 44.2 °F /  6.8 °C 33.9 °F /  1.1 °C 30.00in /  1015.8hPa ENE 4.0mph /  6.4km/h 9.0mph /  14.5km/h 67% 0.00in /  0mm
03:29 44.2 °F /  6.8 °C 33.9 °F /  1.1 °C 30.00in /  1015.8hPa ENE 4.0mph /  6.4km/h 8.0mph /  12.9km/h 67% 0.00in /  0mm
03:34 44.2 °F /  6.8 °C 33.9 °F /  1.1 °C 30.01in /  1016.1hPa East 5.0mph /  8km/h 7.0mph /  11.3km/h 67% 0.00in /  0mm
03:39 44.2 °F /  6.8 °C 33.9 °F /  1.1 °C 30.01in /  1016.1hPa ENE 4.0mph /  6.4km/h 7.0mph /  11.3km/h 67% 0.00in /  0mm
03:44 44.2 °F /  6.8 °C 34.3 °F /  1.3 °C 30.01in /  1016.1hPa ENE 4.0mph /  6.4km/h 12.0mph /  19.3km/h 68% 0.00in /  0mm
03:49 44.3 °F /  6.8 °C 34.4 °F /  1.3 °C 30.01in /  1016.1hPa ENE 4.0mph /  6.4km/h 12.0mph /  19.3km/h 68% 0.00in /  0mm
03:54 44.2 °F /  6.8 °C 34.3 °F /  1.3 °C 30.01in /  1016.1hPa East 3.0mph /  4.8km/h 8.0mph /  12.9km/h 68% 0.00in /  0mm
03:59 44.1 °F /  6.7 °C 34.2 °F /  1.2 °C 30.01in /  1016.1hPa ENE 2.0mph /  3.2km/h 8.0mph /  12.9km/h 68% 0.00in /  0mm
04:04 44.2 °F /  6.8 °C 34.3 °F /  1.3 °C 30.01in /  1016.1hPa ENE 2.0mph /  3.2km/h 7.0mph /  11.3km/h 68% 0.00in /  0mm
04:09 44.1 °F /  6.7 °C 34.2 °F /  1.2 °C 30.01in /  1016.1hPa ENE 3.0mph /  4.8km/h 7.0mph /  11.3km/h 68% 0.00in /  0mm
04:14 44.2 °F /  6.8 °C 34.3 °F /  1.3 °C 30.00in /  1015.8hPa ENE 4.0mph /  6.4km/h 10.0mph /  16.1km/h 68% 0.00in /  0mm
04:19 44.4 °F /  6.9 °C 34.5 °F /  1.4 °C 30.00in /  1015.8hPa ENE 5.0mph /  8km/h 10.0mph /  16.1km/h 68% 0.00in /  0mm
04:24 44.5 °F /  6.9 °C 34.2 °F /  1.2 °C 30.00in /  1015.8hPa ENE 5.0mph /  8km/h 8.0mph /  12.9km/h 67% 0.00in /  0mm
04:29 44.7 °F /  7.1 °C 34.4 °F /  1.3 °C 30.00in /  1015.8hPa East 2.0mph /  3.2km/h 9.0mph /  14.5km/h 67% 0.00in /  0mm
04:34 44.8 °F /  7.1 °C 34.1 °F /  1.2 °C 30.00in /  1015.8hPa NE 4.0mph /  6.4km/h 8.0mph /  12.9km/h 66% 0.00in /  0mm
04:39 44.8 °F /  7.1 °C 34.1 °F /  1.2 °C 30.00in /  1015.8hPa ENE 4.0mph /  6.4km/h 8.0mph /  12.9km/h 66% 0.00in /  0mm
04:44 44.9 °F /  7.2 °C 34.6 °F /  1.4 °C 30.00in /  1015.8hPa ENE 3.0mph /  4.8km/h 7.0mph /  11.3km/h 67% 0.00in /  0mm
04:49 44.8 °F /  7.1 °C 34.1 °F /  1.2 °C 30.00in /  1015.8hPa ENE 4.0mph /  6.4km/h 7.0mph /  11.3km/h 66% 0.00in /  0mm
04:54 44.9 °F /  7.2 °C 34.6 °F /  1.4 °C 29.99in /  1015.5hPa ENE 3.0mph /  4.8km/h 5.0mph /  8km/h 67% 0.00in /  0mm
04:59 44.9 °F /  7.2 °C 34.6 °F /  1.4 °C 29.99in /  1015.5hPa ENE 2.0mph /  3.2km/h 8.0mph /  12.9km/h 67% 0.00in /  0mm
05:04 44.9 °F /  7.2 °C 34.6 °F /  1.4 °C 29.98in /  1015.1hPa ENE 4.0mph /  6.4km/h 7.0mph /  11.3km/h 67% 0.00in /  0mm
05:09 44.9 °F /  7.2 °C 34.6 °F /  1.4 °C 29.98in /  1015.1hPa ENE 4.0mph /  6.4km/h 9.0mph /  14.5km/h 67% 0.00in /  0mm
05:14 44.8 °F /  7.1 °C 34.5 °F /  1.4 °C 29.98in /  1015.1hPa ENE 4.0mph /  6.4km/h 9.0mph /  14.5km/h 67% 0.00in /  0mm
05:19 44.7 °F /  7.1 °C 34.8 °F /  1.6 °C 29.97in /  1014.8hPa ENE 4.0mph /  6.4km/h 9.0mph /  14.5km/h 68% 0.00in /  0mm
05:24 44.7 °F /  7.1 °C 34.8 °F /  1.6 °C 29.97in /  1014.8hPa ENE 4.0mph /  6.4km/h 10.0mph /  16.1km/h 68% 0.00in /  0mm
05:29 44.7 °F /  7.1 °C 34.8 °F /  1.6 °C 29.96in /  1014.4hPa NE 3.0mph /  4.8km/h 10.0mph /  16.1km/h 68% 0.00in /  0mm
05:34 44.6 °F /  7 °C 34.7 °F /  1.5 °C 29.96in /  1014.4hPa ESE 4.0mph /  6.4km/h 8.0mph /  12.9km/h 68% 0.00in /  0mm
05:39 44.7 °F /  7.1 °C 34.8 °F /  1.6 °C 29.96in /  1014.4hPa ENE 4.0mph /  6.4km/h 8.0mph /  12.9km/h 68% 0.00in /  0mm
05:44 44.6 °F /  7 °C 34.7 °F /  1.5 °C 29.96in /  1014.4hPa ENE 2.0mph /  3.2km/h 8.0mph /  12.9km/h 68% 0.00in /  0mm
05:49 44.7 °F /  7.1 °C 35.1 °F /  1.7 °C 29.96in /  1014.4hPa NE 7.0mph /  11.3km/h 12.0mph /  19.3km/h 69% 0.00in /  0mm
05:54 44.7 °F /  7.1 °C 35.1 °F /  1.7 °C 29.96in /  1014.4hPa NE 5.0mph /  8km/h 10.0mph /  16.1km/h 69% 0.00in /  0mm
05:59 44.7 °F /  7.1 °C 35.1 °F /  1.7 °C 29.96in /  1014.4hPa ENE 7.0mph /  11.3km/h 11.0mph /  17.7km/h 69% 0.00in /  0mm
06:04 44.6 °F /  7 °C 35.1 °F /  1.7 °C 29.97in /  1014.8hPa ENE 5.0mph /  8km/h 11.0mph /  17.7km/h 69% 0.00in /  0mm
06:09 44.7 °F /  7.1 °C 35.1 °F /  1.7 °C 29.97in /  1014.8hPa NE 6.0mph /  9.7km/h 11.0mph /  17.7km/h 69% 0.00in /  0mm
06:14 44.6 °F /  7 °C 35.4 °F /  1.9 °C 29.96in /  1014.4hPa NE 5.0mph /  8km/h 10.0mph /  16.1km/h 70% 0.00in /  0mm
06:19 44.6 °F /  7 °C 35.1 °F /  1.7 °C 29.96in /  1014.4hPa NE 5.0mph /  8km/h 11.0mph /  17.7km/h 69% 0.00in /  0mm
06:24 44.8 °F /  7.1 °C 35.2 °F /  1.8 °C 29.96in /  1014.4hPa ENE 5.0mph /  8km/h 11.0mph /  17.7km/h 69% 0.00in /  0mm
06:29 44.9 °F /  7.2 °C 35.7 °F /  2.1 °C 29.96in /  1014.4hPa ENE 4.0mph /  6.4km/h 8.0mph /  12.9km/h 70% 0.00in /  0mm
06:34 44.9 °F /  7.2 °C 35.7 °F /  2.1 °C 29.96in /  1014.4hPa NE 3.0mph /  4.8km/h 8.0mph /  12.9km/h 70% 0.00in /  0mm
06:39 45.1 °F /  7.3 °C 35.9 °F /  2.2 °C 29.96in /  1014.4hPa ENE 4.0mph /  6.4km/h 13.0mph /  20.9km/h 70% 0.00in /  0mm
06:44 45.2 °F /  7.3 °C 35.6 °F /  2 °C 29.96in /  1014.4hPa ENE 4.0mph /  6.4km/h 11.0mph /  17.7km/h 69% 0.00in /  0mm
06:49 45.3 °F /  7.4 °C 35.7 °F /  2.1 °C 29.96in /  1014.4hPa NE 7.0mph /  11.3km/h 9.0mph /  14.5km/h 69% 0.00in /  0mm
06:54 45.4 °F /  7.4 °C 35.8 °F /  2.1 °C 29.96in /  1014.4hPa ENE 3.0mph /  4.8km/h 10.0mph /  16.1km/h 69% 0.00in /  0mm
06:59 45.6 °F /  7.6 °C 36.0 °F /  2.2 °C 29.97in /  1014.8hPa ENE 2.0mph /  3.2km/h 6.0mph /  9.7km/h 69% 0.00in /  0mm
07:04 45.7 °F /  7.6 °C 36.1 °F /  2.3 °C 29.97in /  1014.8hPa ENE 4.0mph /  6.4km/h 7.0mph /  11.3km/h 69% 0.00in /  0mm
07:09 45.7 °F /  7.6 °C 36.1 °F /  2.3 °C 29.98in /  1015.1hPa ENE 3.0mph /  4.8km/h 7.0mph /  11.3km/h 69% 0.00in /  0mm
07:14 45.8 °F /  7.7 °C 36.6 °F /  2.6 °C 29.97in /  1014.8hPa ENE 4.0mph /  6.4km/h 7.0mph /  11.3km/h 70% 0.00in /  0mm
07:19 45.8 °F /  7.7 °C 36.6 °F /  2.6 °C 29.97in /  1014.8hPa ENE 4.0mph /  6.4km/h 9.0mph /  14.5km/h 70% 0.00in /  0mm
07:24 45.9 °F /  7.7 °C 36.7 °F /  2.6 °C 29.97in /  1014.8hPa ENE 5.0mph /  8km/h 9.0mph /  14.5km/h 70% 0.00in /  0mm
07:29 45.9 °F /  7.7 °C 36.7 °F /  2.6 °C 29.97in /  1014.8hPa ENE 5.0mph /  8km/h 10.0mph /  16.1km/h 70% 0.00in /  0mm
07:34 46.1 °F /  7.8 °C 36.5 °F /  2.5 °C 29.97in /  1014.8hPa ENE 4.0mph /  6.4km/h 10.0mph /  16.1km/h 69% 0.00in /  0mm
07:39 46.1 °F /  7.8 °C 36.5 °F /  2.5 °C 29.97in /  1014.8hPa NE 5.0mph /  8km/h 10.0mph /  16.1km/h 69% 0.00in /  0mm
07:44 46.2 °F /  7.9 °C 36.6 °F /  2.6 °C 29.97in /  1014.8hPa NE 5.0mph /  8km/h 10.0mph /  16.1km/h 69% 0.00in /  0mm
07:49 46.5 °F /  8.1 °C 36.9 °F /  2.7 °C 29.97in /  1014.8hPa NE 5.0mph /  8km/h 8.0mph /  12.9km/h 69% 0.00in /  0mm
07:54 46.8 °F /  8.2 °C 36.8 °F /  2.7 °C 29.97in /  1014.8hPa ENE 4.0mph /  6.4km/h 9.0mph /  14.5km/h 68% 0.00in /  0mm
07:59 47.2 °F /  8.4 °C 36.8 °F /  2.7 °C 29.98in /  1015.1hPa NE 7.0mph /  11.3km/h 11.0mph /  17.7km/h 67% 0.00in /  0mm
08:04 47.4 °F /  8.6 °C 37.0 °F /  2.8 °C 29.98in /  1015.1hPa NE 1.0mph /  1.6km/h 9.0mph /  14.5km/h 67% 0.00in /  0mm
08:09 47.6 °F /  8.7 °C 37.2 °F /  2.9 °C 29.97in /  1014.8hPa ENE 4.0mph /  6.4km/h 9.0mph /  14.5km/h 67% 0.00in /  0mm
08:14 47.8 °F /  8.8 °C 37.0 °F /  2.8 °C 29.97in /  1014.8hPa ENE 5.0mph /  8km/h 10.0mph /  16.1km/h 66% 0.00in /  0mm
08:19 48.0 °F /  8.9 °C 37.6 °F /  3.1 °C 29.97in /  1014.8hPa ENE 5.0mph /  8km/h 10.0mph /  16.1km/h 67% 0.00in /  0mm
08:24 48.2 °F /  9 °C 37.8 °F /  3.2 °C 29.97in /  1014.8hPa ENE 6.0mph /  9.7km/h 10.0mph /  16.1km/h 67% 0.00in /  0mm
08:29 48.3 °F /  9.1 °C 38.6 °F /  3.7 °C 29.97in /  1014.8hPa NE 9.0mph /  14.5km/h 9.0mph /  14.5km/h 69% 0.00in /  0mm
08:34 48.2 °F /  9 °C 38.5 °F /  3.6 °C 29.98in /  1015.1hPa NE 9.0mph /  14.5km/h 11.0mph /  17.7km/h 69% 0.00in /  0mm
08:39 48.3 °F /  9.1 °C 38.6 °F /  3.7 °C 29.98in /  1015.1hPa NE 8.0mph /  12.9km/h 12.0mph /  19.3km/h 69% 0.00in /  0mm
08:44 48.2 °F /  9 °C 38.1 °F /  3.4 °C 29.98in /  1015.1hPa NE 6.0mph /  9.7km/h 12.0mph /  19.3km/h 68% 0.00in /  0mm
08:49 48.4 °F /  9.1 °C 38.7 °F /  3.7 °C 29.98in /  1015.1hPa NE 6.0mph /  9.7km/h 13.0mph /  20.9km/h 69% 0.00in /  0mm
08:54 48.5 °F /  9.2 °C 38.4 °F /  3.6 °C 29.98in /  1015.1hPa NE 5.0mph /  8km/h 12.0mph /  19.3km/h 68% 0.00in /  0mm
08:59 48.6 °F /  9.2 °C 38.5 °F /  3.6 °C 29.98in /  1015.1hPa ENE 10.0mph /  16.1km/h 12.0mph /  19.3km/h 68% 0.00in /  0mm
09:04 48.8 °F /  9.3 °C 38.7 °F /  3.7 °C 29.98in /  1015.1hPa NE 3.0mph /  4.8km/h 12.0mph /  19.3km/h 68% 0.00in /  0mm
09:14 49.1 °F /  9.5 °C 37.8 °F /  3.2 °C 29.98in /  1015.1hPa East 8.0mph /  12.9km/h 12.0mph /  19.3km/h 65% 0.00in /  0mm
09:19 49.4 °F /  9.7 °C 38.1 °F /  3.4 °C 29.98in /  1015.1hPa NE 6.0mph /  9.7km/h 10.0mph /  16.1km/h 65% 0.00in /  0mm
09:24 49.6 °F /  9.8 °C 37.9 °F /  3.3 °C 29.97in /  1014.8hPa NE 6.0mph /  9.7km/h 15.0mph /  24.1km/h 64% 0.00in /  0mm
09:29 49.8 °F /  9.9 °C 38.1 °F /  3.4 °C 29.98in /  1015.1hPa NE 9.0mph /  14.5km/h 12.0mph /  19.3km/h 64% 0.00in /  0mm
09:34 50.0 °F /  10 °C 37.9 °F /  3.3 °C 29.99in /  1015.5hPa NE 7.0mph /  11.3km/h 14.0mph /  22.5km/h 63% 0.00in /  0mm
09:39 50.2 °F /  10.1 °C 38.1 °F /  3.4 °C 29.99in /  1015.5hPa ENE 7.0mph /  11.3km/h 14.0mph /  22.5km/h 63% 0.00in /  0mm
09:44 50.3 °F /  10.2 °C 37.8 °F /  3.2 °C 29.98in /  1015.1hPa NE 8.0mph /  12.9km/h 14.0mph /  22.5km/h 62% 0.00in /  0mm
09:49 50.5 °F /  10.3 °C 38.0 °F /  3.3 °C 29.98in /  1015.1hPa NE 8.0mph /  12.9km/h 17.0mph /  27.4km/h 62% 0.00in /  0mm
09:54 50.9 °F /  10.5 °C 38.7 °F /  3.7 °C 29.98in /  1015.1hPa ENE 7.0mph /  11.3km/h 17.0mph /  27.4km/h 63% 0.00in /  0mm
09:59 51.2 °F /  10.7 °C 38.2 °F /  3.4 °C 29.98in /  1015.1hPa ENE 5.0mph /  8km/h 14.0mph /  22.5km/h 61% 0.00in /  0mm
10:04 51.6 °F /  10.9 °C 38.6 °F /  3.7 °C 29.97in /  1014.8hPa ENE 7.0mph /  11.3km/h 14.0mph /  22.5km/h 61% 0.00in /  0mm
10:09 51.8 °F /  11 °C 38.8 °F /  3.8 °C 29.97in /  1014.8hPa ENE 8.0mph /  12.9km/h 15.0mph /  24.1km/h 61% 0.00in /  0mm
10:14 52.0 °F /  11.1 °C 38.5 °F /  3.6 °C 29.97in /  1014.8hPa NE 6.0mph /  9.7km/h 16.0mph /  25.7km/h 60% 0.00in /  0mm
10:19 52.3 °F /  11.3 °C 38.8 °F /  3.8 °C 29.97in /  1014.8hPa ENE 8.0mph /  12.9km/h 13.0mph /  20.9km/h 60% 0.00in /  0mm
10:24 52.8 °F /  11.6 °C 39.3 °F /  4.1 °C 29.96in /  1014.4hPa ESE 4.0mph /  6.4km/h 13.0mph /  20.9km/h 60% 0.00in /  0mm
10:29 53.6 °F /  12 °C 39.6 °F /  4.2 °C 29.96in /  1014.4hPa North 9.0mph /  14.5km/h 13.0mph /  20.9km/h 59% 0.00in /  0mm
10:34 54.4 °F /  12.4 °C 39.9 °F /  4.4 °C 29.96in /  1014.4hPa ENE 4.0mph /  6.4km/h 15.0mph /  24.1km/h 58% 0.00in /  0mm
10:39 54.8 °F /  12.7 °C 40.3 °F /  4.6 °C 29.96in /  1014.4hPa ENE 7.0mph /  11.3km/h 16.0mph /  25.7km/h 58% 0.00in /  0mm
10:44 55.1 °F /  12.8 °C 40.6 °F /  4.8 °C 29.96in /  1014.4hPa ENE 7.0mph /  11.3km/h 16.0mph /  25.7km/h 58% 0.00in /  0mm
10:49 55.3 °F /  12.9 °C 39.9 °F /  4.4 °C 29.96in /  1014.4hPa East 7.0mph /  11.3km/h 16.0mph /  25.7km/h 56% 0.00in /  0mm
10:54 55.7 °F /  13.2 °C 40.2 °F /  4.6 °C 29.96in /  1014.4hPa ENE 6.0mph /  9.7km/h 15.0mph /  24.1km/h 56% 0.00in /  0mm
10:59 56.0 °F /  13.3 °C 40.1 °F /  4.5 °C 29.96in /  1014.4hPa NE 4.0mph /  6.4km/h 12.0mph /  19.3km/h 55% 0.00in /  0mm
11:04 56.6 °F /  13.7 °C 40.1 °F /  4.5 °C 29.96in /  1014.4hPa NE 5.0mph /  8km/h 14.0mph /  22.5km/h 54% 0.00in /  0mm
11:09 57.0 °F /  13.9 °C 40.0 °F /  4.4 °C 29.96in /  1014.4hPa ENE 7.0mph /  11.3km/h 17.0mph /  27.4km/h 53% 0.00in /  0mm
11:14 57.0 °F /  13.9 °C 39.0 °F /  3.9 °C 29.96in /  1014.4hPa ENE 8.0mph /  12.9km/h 17.0mph /  27.4km/h 51% 0.00in /  0mm
11:19 56.9 °F /  13.8 °C 39.4 °F /  4.1 °C 29.96in /  1014.4hPa ENE 7.0mph /  11.3km/h 16.0mph /  25.7km/h 52% 0.00in /  0mm
11:24 56.7 °F /  13.7 °C 38.8 °F /  3.8 °C 29.95in /  1014.1hPa ENE 4.0mph /  6.4km/h 14.0mph /  22.5km/h 51% 0.00in /  0mm
11:29 56.7 °F /  13.7 °C 38.8 °F /  3.8 °C 29.96in /  1014.4hPa ENE 4.0mph /  6.4km/h 14.0mph /  22.5km/h 51% 0.00in /  0mm
11:34 56.8 °F /  13.8 °C 38.9 °F /  3.8 °C 29.95in /  1014.1hPa East 6.0mph /  9.7km/h 14.0mph /  22.5km/h 51% 0.00in /  0mm
11:39 56.8 °F /  13.8 °C 38.9 °F /  3.8 °C 29.95in /  1014.1hPa East 5.0mph /  8km/h 13.0mph /  20.9km/h 51% 0.00in /  0mm
11:44 56.7 °F /  13.7 °C 38.8 °F /  3.8 °C 29.96in /  1014.4hPa East 6.0mph /  9.7km/h 13.0mph /  20.9km/h 51% 0.00in /  0mm
11:49 56.5 °F /  13.6 °C 39.1 °F /  3.9 °C 29.96in /  1014.4hPa ENE 2.0mph /  3.2km/h 13.0mph /  20.9km/h 52% 0.00in /  0mm
11:54 56.6 °F /  13.7 °C 39.2 °F /  4 °C 29.96in /  1014.4hPa NE 9.0mph /  14.5km/h 13.0mph /  20.9km/h 52% 0.00in /  0mm
11:59 56.5 °F /  13.6 °C 39.1 °F /  3.9 °C 29.96in /  1014.4hPa ENE 7.0mph /  11.3km/h 11.0mph /  17.7km/h 52% 0.00in /  0mm
12:04 56.6 °F /  13.7 °C 39.2 °F /  4 °C 29.96in /  1014.4hPa ENE 11.0mph /  17.7km/h 12.0mph /  19.3km/h 52% 0.00in /  0mm
12:09 56.7 °F /  13.7 °C 39.3 °F /  4.1 °C 29.96in /  1014.4hPa ENE 5.0mph /  8km/h 12.0mph /  19.3km/h 52% 0.00in /  0mm
12:14 56.8 °F /  13.8 °C 39.8 °F /  4.3 °C 29.96in /  1014.4hPa ENE 6.0mph /  9.7km/h 11.0mph /  17.7km/h 53% 0.00in /  0mm
12:19 56.8 °F /  13.8 °C 38.9 °F /  3.8 °C 29.96in /  1014.4hPa ENE 6.0mph /  9.7km/h 11.0mph /  17.7km/h 51% 0.00in /  0mm
12:24 56.7 °F /  13.7 °C 39.3 °F /  4.1 °C 29.97in /  1014.8hPa ENE 5.0mph /  8km/h 11.0mph /  17.7km/h 52% 0.00in /  0mm
12:29 56.6 °F /  13.7 °C 39.2 °F /  4 °C 29.96in /  1014.4hPa ENE 5.0mph /  8km/h 10.0mph /  16.1km/h 52% 0.00in /  0mm
12:34 56.5 °F /  13.6 °C 39.1 °F /  3.9 °C 29.96in /  1014.4hPa NE 5.0mph /  8km/h 11.0mph /  17.7km/h 52% 0.00in /  0mm
12:39 56.5 °F /  13.6 °C 39.1 °F /  3.9 °C 29.95in /  1014.1hPa ENE 5.0mph /  8km/h 13.0mph /  20.9km/h 52% 0.00in /  0mm
12:44 56.6 °F /  13.7 °C 39.2 °F /  4 °C 29.95in /  1014.1hPa ENE 5.0mph /  8km/h 11.0mph /  17.7km/h 52% 0.00in /  0mm
12:49 56.5 °F /  13.6 °C 39.1 °F /  3.9 °C 29.95in /  1014.1hPa NE 7.0mph /  11.3km/h 10.0mph /  16.1km/h 52% 0.00in /  0mm
12:54 56.4 °F /  13.6 °C 39.0 °F /  3.9 °C 29.95in /  1014.1hPa NE 8.0mph /  12.9km/h 14.0mph /  22.5km/h 52% 0.00in /  0mm
12:59 56.4 °F /  13.6 °C 39.0 °F /  3.9 °C 29.95in /  1014.1hPa ENE 3.0mph /  4.8km/h 11.0mph /  17.7km/h 52% 0.00in /  0mm
13:04 56.6 °F /  13.7 °C 39.2 °F /  4 °C 29.95in /  1014.1hPa NE 5.0mph /  8km/h 11.0mph /  17.7km/h 52% 0.00in /  0mm
13:09 56.9 °F /  13.8 °C 39.9 °F /  4.4 °C 29.95in /  1014.1hPa ENE 5.0mph /  8km/h 13.0mph /  20.9km/h 53% 0.00in /  0mm
13:14 57.5 °F /  14.2 °C 39.5 °F /  4.2 °C 29.95in /  1014.1hPa East 5.0mph /  8km/h 13.0mph /  20.9km/h 51% 0.00in /  0mm
13:19 57.9 °F /  14.4 °C 39.9 °F /  4.4 °C 29.95in /  1014.1hPa ENE 6.0mph /  9.7km/h 11.0mph /  17.7km/h 51% 0.00in /  0mm
13:24 58.1 °F /  14.5 °C 39.5 °F /  4.2 °C 29.95in /  1014.1hPa ENE 6.0mph /  9.7km/h 11.0mph /  17.7km/h 50% 0.00in /  0mm
13:29 58.3 °F /  14.6 °C 39.7 °F /  4.3 °C 29.95in /  1014.1hPa ENE 5.0mph /  8km/h 12.0mph /  19.3km/h 50% 0.00in /  0mm
13:34 58.1 °F /  14.5 °C 39.5 °F /  4.2 °C 29.95in /  1014.1hPa ENE 6.0mph /  9.7km/h 12.0mph /  19.3km/h 50% 0.00in /  0mm
13:39 58.0 °F /  14.4 °C 40.0 °F /  4.4 °C 29.96in /  1014.4hPa ENE 6.0mph /  9.7km/h 11.0mph /  17.7km/h 51% 0.00in /  0mm
13:44 58.0 °F /  14.4 °C 39.5 °F /  4.2 °C 29.95in /  1014.1hPa NE 7.0mph /  11.3km/h 18.0mph /  29km/h 50% 0.00in /  0mm
13:49 58.0 °F /  14.4 °C 39.5 °F /  4.2 °C 29.95in /  1014.1hPa East 6.0mph /  9.7km/h 16.0mph /  25.7km/h 50% 0.00in /  0mm
13:54 57.9 °F /  14.4 °C 39.9 °F /  4.4 °C 29.95in /  1014.1hPa NE 6.0mph /  9.7km/h 11.0mph /  17.7km/h 51% 0.00in /  0mm
13:59 58.0 °F /  14.4 °C 40.0 °F /  4.4 °C 29.96in /  1014.4hPa NE 6.0mph /  9.7km/h 11.0mph /  17.7km/h 51% 0.00in /  0mm
14:04 58.1 °F /  14.5 °C 40.6 °F /  4.8 °C 29.95in /  1014.1hPa ENE 6.0mph /  9.7km/h 11.0mph /  17.7km/h 52% 0.00in /  0mm
14:09 58.2 °F /  14.6 °C 40.1 °F /  4.5 °C 29.96in /  1014.4hPa ENE 5.0mph /  8km/h 11.0mph /  17.7km/h 51% 0.00in /  0mm
14:14 58.3 °F /  14.6 °C 40.7 °F /  4.8 °C 29.95in /  1014.1hPa NNE 7.0mph /  11.3km/h 12.0mph /  19.3km/h 52% 0.00in /  0mm
14:19 58.3 °F /  14.6 °C 39.7 °F /  4.3 °C 29.96in /  1014.4hPa SE 6.0mph /  9.7km/h 12.0mph /  19.3km/h 50% 0.00in /  0mm
14:24 58.5 °F /  14.7 °C 40.4 °F /  4.7 °C 29.96in /  1014.4hPa North 2.0mph /  3.2km/h 9.0mph /  14.5km/h 51% 0.00in /  0mm
14:29 58.6 °F /  14.8 °C 40.0 °F /  4.4 °C 29.96in /  1014.4hPa East 5.0mph /  8km/h 12.0mph /  19.3km/h 50% 0.00in /  0mm
14:34 58.6 °F /  14.8 °C 40.5 °F /  4.7 °C 29.96in /  1014.4hPa NE 6.0mph /  9.7km/h 12.0mph /  19.3km/h 51% 0.00in /  0mm
14:39 58.9 °F /  14.9 °C 39.8 °F /  4.3 °C 29.95in /  1014.1hPa NE 6.0mph /  9.7km/h 11.0mph /  17.7km/h 49% 0.00in /  0mm
14:44 59.1 °F /  15.1 °C 39.9 °F /  4.4 °C 29.95in /  1014.1hPa ENE 5.0mph /  8km/h 12.0mph /  19.3km/h 49% 0.00in /  0mm
14:49 59.4 °F /  15.2 °C 39.7 °F /  4.3 °C 29.95in /  1014.1hPa ENE 6.0mph /  9.7km/h 13.0mph /  20.9km/h 48% 0.00in /  0mm
14:54 59.4 °F /  15.2 °C 40.2 °F /  4.6 °C 29.95in /  1014.1hPa NE 7.0mph /  11.3km/h 13.0mph /  20.9km/h 49% 0.00in /  0mm
14:59 59.7 °F /  15.4 °C 40.5 °F /  4.7 °C 29.95in /  1014.1hPa SSE 2.0mph /  3.2km/h 9.0mph /  14.5km/h 49% 0.00in /  0mm
15:04 59.9 °F /  15.5 °C 40.1 °F /  4.5 °C 29.95in /  1014.1hPa East 5.0mph /  8km/h 13.0mph /  20.9km/h 48% 0.00in /  0mm
15:09 60.0 °F /  15.6 °C 39.7 °F /  4.3 °C 29.95in /  1014.1hPa ENE 4.0mph /  6.4km/h 14.0mph /  22.5km/h 47% 0.00in /  0mm
15:14 60.2 °F /  15.7 °C 39.9 °F /  4.4 °C 29.94in /  1013.8hPa ENE 3.0mph /  4.8km/h 13.0mph /  20.9km/h 47% 0.00in /  0mm
15:19 60.4 °F /  15.8 °C 39.5 °F /  4.2 °C 29.95in /  1014.1hPa ENE 5.0mph /  8km/h 13.0mph /  20.9km/h 46% 0.00in /  0mm
15:24 60.6 °F /  15.9 °C 40.8 °F /  4.9 °C 29.94in /  1013.8hPa NE 5.0mph /  8km/h 10.0mph /  16.1km/h 48% 0.00in /  0mm
15:29 60.6 °F /  15.9 °C 40.2 °F /  4.6 °C 29.94in /  1013.8hPa ENE 5.0mph /  8km/h 15.0mph /  24.1km/h 47% 0.00in /  0mm
15:34 60.8 °F /  16 °C 39.9 °F /  4.4 °C 29.94in /  1013.8hPa ENE 5.0mph /  8km/h 15.0mph /  24.1km/h 46% 0.00in /  0mm
15:39 60.8 °F /  16 °C 39.9 °F /  4.4 °C 29.94in /  1013.8hPa ENE 4.0mph /  6.4km/h 10.0mph /  16.1km/h 46% 0.00in /  0mm
15:44 60.7 °F /  15.9 °C 39.8 °F /  4.3 °C 29.95in /  1014.1hPa ENE 5.0mph /  8km/h 11.0mph /  17.7km/h 46% 0.00in /  0mm
15:49 60.2 °F /  15.7 °C 39.3 °F /  4.1 °C 29.95in /  1014.1hPa NE 5.0mph /  8km/h 11.0mph /  17.7km/h 46% 0.00in /  0mm
15:54 60.2 °F /  15.7 °C 39.3 °F /  4.1 °C 29.95in /  1014.1hPa ENE 6.0mph /  9.7km/h 11.0mph /  17.7km/h 46% 0.00in /  0mm
15:59 60.1 °F /  15.6 °C 40.3 °F /  4.6 °C 29.95in /  1014.1hPa ESE 3.0mph /  4.8km/h 11.0mph /  17.7km/h 48% 0.00in /  0mm
16:04 60.2 °F /  15.7 °C 40.4 °F /  4.7 °C 29.94in /  1013.8hPa ENE 6.0mph /  9.7km/h 14.0mph /  22.5km/h 48% 0.00in /  0mm
16:09 60.0 °F /  15.6 °C 41.8 °F /  5.4 °C 29.94in /  1013.8hPa ENE 5.0mph /  8km/h 14.0mph /  22.5km/h 51% 0.00in /  0mm
16:14 60.0 °F /  15.6 °C 41.8 °F /  5.4 °C 29.94in /  1013.8hPa NE 7.0mph /  11.3km/h 17.0mph /  27.4km/h 51% 0.00in /  0mm
16:19 59.9 °F /  15.5 °C 41.7 °F /  5.4 °C 29.94in /  1013.8hPa ENE 13.0mph /  20.9km/h 17.0mph /  27.4km/h 51% 0.00in /  0mm
16:24 60.0 °F /  15.6 °C 42.3 °F /  5.7 °C 29.94in /  1013.8hPa NE 10.0mph /  16.1km/h 16.0mph /  25.7km/h 52% 0.00in /  0mm
16:29 60.0 °F /  15.6 °C 41.3 °F /  5.2 °C 29.94in /  1013.8hPa ENE 11.0mph /  17.7km/h 16.0mph /  25.7km/h 50% 0.00in /  0mm
16:34 59.7 °F /  15.4 °C 41.0 °F /  5 °C 29.95in /  1014.1hPa ENE 8.0mph /  12.9km/h 16.0mph /  25.7km/h 50% 0.00in /  0mm
16:39 59.5 °F /  15.3 °C 40.8 °F /  4.9 °C 29.95in /  1014.1hPa ENE 8.0mph /  12.9km/h 17.0mph /  27.4km/h 50% 0.00in /  0mm
16:44 59.3 °F /  15.2 °C 40.7 °F /  4.8 °C 29.95in /  1014.1hPa NE 8.0mph /  12.9km/h 17.0mph /  27.4km/h 50% 0.00in /  0mm
16:49 58.9 °F /  14.9 °C 40.3 °F /  4.6 °C 29.95in /  1014.1hPa NE 9.0mph /  14.5km/h 17.0mph /  27.4km/h 50% 0.00in /  0mm
16:54 58.6 °F /  14.8 °C 41.0 °F /  5 °C 29.96in /  1014.4hPa NE 9.0mph /  14.5km/h 15.0mph /  24.1km/h 52% 0.00in /  0mm
16:59 58.6 °F /  14.8 °C 40.5 °F /  4.7 °C 29.96in /  1014.4hPa ENE 7.0mph /  11.3km/h 16.0mph /  25.7km/h 51% 0.00in /  0mm
17:04 58.4 °F /  14.7 °C 40.3 °F /  4.6 °C 29.96in /  1014.4hPa NE 9.0mph /  14.5km/h 17.0mph /  27.4km/h 51% 0.00in /  0mm
17:09 58.2 °F /  14.6 °C 40.6 °F /  4.8 °C 29.96in /  1014.4hPa ENE 9.0mph /  14.5km/h 17.0mph /  27.4km/h 52% 0.00in /  0mm
17:14 58.3 °F /  14.6 °C 40.2 °F /  4.6 °C 29.96in /  1014.4hPa ENE 7.0mph /  11.3km/h 17.0mph /  27.4km/h 51% 0.00in /  0mm
17:19 58.0 °F /  14.4 °C 40.0 °F /  4.4 °C 29.96in /  1014.4hPa NE 7.0mph /  11.3km/h 14.0mph /  22.5km/h 51% 0.00in /  0mm
17:24 57.8 °F /  14.3 °C 39.8 °F /  4.3 °C 29.96in /  1014.4hPa NE 7.0mph /  11.3km/h 18.0mph /  29km/h 51% 0.00in /  0mm
17:29 57.6 °F /  14.2 °C 39.6 °F /  4.2 °C 29.96in /  1014.4hPa NE 11.0mph /  17.7km/h 17.0mph /  27.4km/h 51% 0.00in /  0mm
17:34 57.3 °F /  14.1 °C 39.3 °F /  4.1 °C 29.96in /  1014.4hPa NE 8.0mph /  12.9km/h 17.0mph /  27.4km/h 51% 0.00in /  0mm
17:39 57.1 °F /  13.9 °C 38.6 °F /  3.7 °C 29.96in /  1014.4hPa ENE 4.0mph /  6.4km/h 14.0mph /  22.5km/h 50% 0.00in /  0mm
17:44 56.9 °F /  13.8 °C 38.4 °F /  3.6 °C 29.96in /  1014.4hPa NE 5.0mph /  8km/h 15.0mph /  24.1km/h 50% 0.00in /  0mm
17:49 56.7 °F /  13.7 °C 38.3 °F /  3.5 °C 29.97in /  1014.8hPa ENE 9.0mph /  14.5km/h 16.0mph /  25.7km/h 50% 0.00in /  0mm
17:54 56.5 °F /  13.6 °C 38.1 °F /  3.4 °C 29.97in /  1014.8hPa NE 10.0mph /  16.1km/h 16.0mph /  25.7km/h 50% 0.00in /  0mm
17:59 56.3 °F /  13.5 °C 38.4 °F /  3.6 °C 29.97in /  1014.8hPa ENE 8.0mph /  12.9km/h 13.0mph /  20.9km/h 51% 0.00in /  0mm
18:04 56.0 °F /  13.3 °C 38.1 °F /  3.4 °C 29.97in /  1014.8hPa NE 9.0mph /  14.5km/h 16.0mph /  25.7km/h 51% 0.00in /  0mm
18:09 55.9 °F /  13.3 °C 38.0 °F /  3.3 °C 29.97in /  1014.8hPa NE 8.0mph /  12.9km/h 16.0mph /  25.7km/h 51% 0.00in /  0mm
18:14 55.9 °F /  13.3 °C 38.0 °F /  3.3 °C 29.97in /  1014.8hPa NE 7.0mph /  11.3km/h 16.0mph /  25.7km/h 51% 0.00in /  0mm
18:19 55.9 °F /  13.3 °C 38.0 °F /  3.3 °C 29.97in /  1014.8hPa ENE 7.0mph /  11.3km/h 16.0mph /  25.7km/h 51% 0.00in /  0mm
18:24 55.8 °F /  13.2 °C 37.9 °F /  3.3 °C 29.96in /  1014.4hPa ENE 7.0mph /  11.3km/h 14.0mph /  22.5km/h 51% 0.00in /  0mm
18:29 55.8 °F /  13.2 °C 38.4 °F /  3.6 °C 29.97in /  1014.8hPa NE 7.0mph /  11.3km/h 11.0mph /  17.7km/h 52% 0.00in /  0mm
18:34 55.7 °F /  13.2 °C 37.8 °F /  3.2 °C 29.97in /  1014.8hPa ENE 9.0mph /  14.5km/h 13.0mph /  20.9km/h 51% 0.00in /  0mm
18:39 55.6 °F /  13.1 °C 37.7 °F /  3.2 °C 29.97in /  1014.8hPa NE 10.0mph /  16.1km/h 14.0mph /  22.5km/h 51% 0.00in /  0mm
18:44 55.5 °F /  13.1 °C 38.1 °F /  3.4 °C 29.97in /  1014.8hPa NE 7.0mph /  11.3km/h 11.0mph /  17.7km/h 52% 0.00in /  0mm
18:49 55.5 °F /  13.1 °C 37.7 °F /  3.2 °C 29.97in /  1014.8hPa ENE 2.0mph /  3.2km/h 17.0mph /  27.4km/h 51% 0.00in /  0mm
18:54 55.5 °F /  13.1 °C 38.1 °F /  3.4 °C 29.96in /  1014.4hPa NE 4.0mph /  6.4km/h 13.0mph /  20.9km/h 52% 0.00in /  0mm
18:59 55.4 °F /  13 °C 37.6 °F /  3.1 °C 29.96in /  1014.4hPa ENE 3.0mph /  4.8km/h 11.0mph /  17.7km/h 51% 0.00in /  0mm
19:04 55.3 °F /  12.9 °C 38.0 °F /  3.3 °C 29.97in /  1014.8hPa NE 5.0mph /  8km/h 11.0mph /  17.7km/h 52% 0.00in /  0mm
19:09 55.3 °F /  12.9 °C 38.0 °F /  3.3 °C 29.96in /  1014.4hPa NE 5.0mph /  8km/h 12.0mph /  19.3km/h 52% 0.00in /  0mm
19:14 55.2 °F /  12.9 °C 37.9 °F /  3.3 °C 29.97in /  1014.8hPa NE 6.0mph /  9.7km/h 13.0mph /  20.9km/h 52% 0.00in /  0mm
19:19 55.2 °F /  12.9 °C 37.9 °F /  3.3 °C 29.97in /  1014.8hPa NE 8.0mph /  12.9km/h 13.0mph /  20.9km/h 52% 0.00in /  0mm
19:24 55.1 °F /  12.8 °C 38.3 °F /  3.5 °C 29.97in /  1014.8hPa NE 4.0mph /  6.4km/h 11.0mph /  17.7km/h 53% 0.00in /  0mm
19:29 55.0 °F /  12.8 °C 38.2 °F /  3.4 °C 29.97in /  1014.8hPa NE 6.0mph /  9.7km/h 8.0mph /  12.9km/h 53% 0.00in /  0mm
19:34 54.9 °F /  12.7 °C 38.1 °F /  3.4 °C 29.97in /  1014.8hPa NE 5.0mph /  8km/h 10.0mph /  16.1km/h 53% 0.00in /  0mm
19:39 54.9 °F /  12.7 °C 38.6 °F /  3.7 °C 29.97in /  1014.8hPa NE 5.0mph /  8km/h 10.0mph /  16.1km/h 54% 0.00in /  0mm
19:44 54.8 °F /  12.7 °C 38.5 °F /  3.6 °C 29.98in /  1015.1hPa NE 5.0mph /  8km/h 11.0mph /  17.7km/h 54% 0.00in /  0mm
19:49 54.7 °F /  12.6 °C 38.4 °F /  3.6 °C 29.98in /  1015.1hPa NE 5.0mph /  8km/h 11.0mph /  17.7km/h 54% 0.00in /  0mm
19:54 54.7 °F /  12.6 °C 38.8 °F /  3.8 °C 29.98in /  1015.1hPa NE 1.0mph /  1.6km/h 5.0mph /  8km/h 55% 0.00in /  0mm
19:59 54.6 °F /  12.6 °C 38.7 °F /  3.7 °C 29.98in /  1015.1hPa NE 2.0mph /  3.2km/h 6.0mph /  9.7km/h 55% 0.00in /  0mm
20:04 54.6 °F /  12.6 °C 38.7 °F /  3.7 °C 29.98in /  1015.1hPa NE 2.0mph /  3.2km/h 6.0mph /  9.7km/h 55% 0.00in /  0mm
20:09 54.5 °F /  12.5 °C 38.7 °F /  3.7 °C 29.98in /  1015.1hPa NE 4.0mph /  6.4km/h 6.0mph /  9.7km/h 55% 0.00in /  0mm
20:14 54.4 °F /  12.4 °C 38.6 °F /  3.7 °C 29.98in /  1015.1hPa ENE 4.0mph /  6.4km/h 9.0mph /  14.5km/h 55% 0.00in /  0mm
20:19 54.2 °F /  12.3 °C 38.4 °F /  3.6 °C 29.99in /  1015.5hPa ENE 3.0mph /  4.8km/h 6.0mph /  9.7km/h 55% 0.00in /  0mm
20:24 54.1 °F /  12.3 °C 38.3 °F /  3.5 °C 29.98in /  1015.1hPa NE 1.0mph /  1.6km/h 7.0mph /  11.3km/h 55% 0.00in /  0mm
20:29 54.1 °F /  12.3 °C 38.7 °F /  3.7 °C 29.99in /  1015.5hPa NE 1.0mph /  1.6km/h 3.0mph /  4.8km/h 56% 0.00in /  0mm
20:34 53.9 °F /  12.2 °C 39.0 °F /  3.9 °C 29.99in /  1015.5hPa NE 2.0mph /  3.2km/h 4.0mph /  6.4km/h 57% 0.00in /  0mm
20:39 53.8 °F /  12.1 °C 38.9 °F /  3.8 °C 29.99in /  1015.5hPa NE 3.0mph /  4.8km/h 8.0mph /  12.9km/h 57% 0.00in /  0mm
20:44 53.6 °F /  12 °C 38.7 °F /  3.7 °C 29.99in /  1015.5hPa ENE 3.0mph /  4.8km/h 8.0mph /  12.9km/h 57% 0.00in /  0mm
20:49 53.6 °F /  12 °C 38.7 °F /  3.7 °C 29.99in /  1015.5hPa ENE 3.0mph /  4.8km/h 8.0mph /  12.9km/h 57% 0.00in /  0mm
20:54 53.5 °F /  11.9 °C 38.6 °F /  3.7 °C 29.99in /  1015.5hPa ENE 3.0mph /  4.8km/h 8.0mph /  12.9km/h 57% 0.00in /  0mm
20:59 53.4 °F /  11.9 °C 39.0 °F /  3.9 °C 29.99in /  1015.5hPa ENE 3.0mph /  4.8km/h 7.0mph /  11.3km/h 58% 0.00in /  0mm
21:04 53.4 °F /  11.9 °C 39.4 °F /  4.1 °C 30.00in /  1015.8hPa NE 3.0mph /  4.8km/h 7.0mph /  11.3km/h 59% 0.00in /  0mm
21:09 53.4 °F /  11.9 °C 39.4 °F /  4.1 °C 30.00in /  1015.8hPa NE 2.0mph /  3.2km/h 7.0mph /  11.3km/h 59% 0.00in /  0mm
21:14 53.3 °F /  11.8 °C 39.3 °F /  4.1 °C 30.00in /  1015.8hPa ENE 4.0mph /  6.4km/h 7.0mph /  11.3km/h 59% 0.00in /  0mm
21:19 53.3 °F /  11.8 °C 39.3 °F /  4.1 °C 30.00in /  1015.8hPa NE 5.0mph /  8km/h 6.0mph /  9.7km/h 59% 0.00in /  0mm
21:24 53.2 °F /  11.8 °C 39.2 °F /  4 °C 30.00in /  1015.8hPa NE 2.0mph /  3.2km/h 9.0mph /  14.5km/h 59% 0.00in /  0mm
21:29 53.1 °F /  11.7 °C 39.1 °F /  3.9 °C 30.00in /  1015.8hPa NE 3.0mph /  4.8km/h 6.0mph /  9.7km/h 59% 0.00in /  0mm
21:34 53.1 °F /  11.7 °C 39.1 °F /  3.9 °C 30.00in /  1015.8hPa NE 4.0mph /  6.4km/h 6.0mph /  9.7km/h 59% 0.00in /  0mm
21:39 53.1 °F /  11.7 °C 39.6 °F /  4.2 °C 30.00in /  1015.8hPa NE 3.0mph /  4.8km/h 6.0mph /  9.7km/h 60% 0.00in /  0mm
21:44 53.0 °F /  11.7 °C 39.5 °F /  4.2 °C 30.00in /  1015.8hPa NE 3.0mph /  4.8km/h 7.0mph /  11.3km/h 60% 0.00in /  0mm
21:49 52.9 °F /  11.6 °C 39.4 °F /  4.1 °C 30.01in /  1016.1hPa NE 3.0mph /  4.8km/h 7.0mph /  11.3km/h 60% 0.00in /  0mm
21:54 52.8 °F /  11.6 °C 39.3 °F /  4.1 °C 30.01in /  1016.1hPa NNE 1.0mph /  1.6km/h 6.0mph /  9.7km/h 60% 0.00in /  0mm
21:59 52.7 °F /  11.5 °C 39.6 °F /  4.2 °C 30.00in /  1015.8hPa NNE 4.0mph /  6.4km/h 4.0mph /  6.4km/h 61% 0.00in /  0mm
22:04 52.6 °F /  11.4 °C 39.5 °F /  4.2 °C 30.01in /  1016.1hPa NE 4.0mph /  6.4km/h 5.0mph /  8km/h 61% 0.00in /  0mm
22:09 52.5 °F /  11.4 °C 39.4 °F /  4.1 °C 30.01in /  1016.1hPa NE 3.0mph /  4.8km/h 5.0mph /  8km/h 61% 0.00in /  0mm
22:14 52.4 °F /  11.3 °C 39.3 °F /  4.1 °C 30.01in /  1016.1hPa NE 2.0mph /  3.2km/h 7.0mph /  11.3km/h 61% 0.00in /  0mm
22:19 52.4 °F /  11.3 °C 39.3 °F /  4.1 °C 30.00in /  1015.8hPa NE 2.0mph /  3.2km/h 8.0mph /  12.9km/h 61% 0.00in /  0mm
22:24 52.3 °F /  11.3 °C 39.2 °F /  4 °C 30.01in /  1016.1hPa NE 3.0mph /  4.8km/h 7.0mph /  11.3km/h 61% 0.00in /  0mm
22:29 52.2 °F /  11.2 °C 39.6 °F /  4.2 °C 30.01in /  1016.1hPa NE 3.0mph /  4.8km/h 7.0mph /  11.3km/h 62% 0.00in /  0mm
22:34 52.2 °F /  11.2 °C 39.6 °F /  4.2 °C 30.01in /  1016.1hPa NE 4.0mph /  6.4km/h 8.0mph /  12.9km/h 62% 0.00in /  0mm
22:39 52.2 °F /  11.2 °C 39.6 °F /  4.2 °C 30.00in /  1015.8hPa NE 3.0mph /  4.8km/h 8.0mph /  12.9km/h 62% 0.00in /  0mm
22:44 52.1 °F /  11.2 °C 39.5 °F /  4.2 °C 30.00in /  1015.8hPa NE 4.0mph /  6.4km/h 8.0mph /  12.9km/h 62% 0.00in /  0mm
22:49 52.1 °F /  11.2 °C 39.5 °F /  4.2 °C 30.00in /  1015.8hPa ENE 4.0mph /  6.4km/h 8.0mph /  12.9km/h 62% 0.00in /  0mm
22:54 52.0 °F /  11.1 °C 39.4 °F /  4.1 °C 30.00in /  1015.8hPa ENE 3.0mph /  4.8km/h 8.0mph /  12.9km/h 62% 0.00in /  0mm
22:59 52.0 °F /  11.1 °C 39.8 °F /  4.3 °C 30.00in /  1015.8hPa ENE 2.0mph /  3.2km/h 7.0mph /  11.3km/h 63% 0.00in /  0mm
23:04 51.9 °F /  11.1 °C 39.7 °F /  4.3 °C 30.00in /  1015.8hPa ENE 3.0mph /  4.8km/h 7.0mph /  11.3km/h 63% 0.00in /  0mm
23:09 51.8 °F /  11 °C 39.6 °F /  4.2 °C 30.00in /  1015.8hPa ENE 3.0mph /  4.8km/h 7.0mph /  11.3km/h 63% 0.00in /  0mm
23:14 51.8 °F /  11 °C 39.6 °F /  4.2 °C 30.00in /  1015.8hPa East 2.0mph /  3.2km/h 8.0mph /  12.9km/h 63% 0.00in /  0mm
23:19 51.7 °F /  10.9 °C 39.5 °F /  4.2 °C 30.00in /  1015.8hPa East 1.0mph /  1.6km/h 3.0mph /  4.8km/h 63% 0.00in /  0mm
23:24 51.6 °F /  10.9 °C 39.8 °F /  4.3 °C 30.00in /  1015.8hPa NE 4.0mph /  6.4km/h 5.0mph /  8km/h 64% 0.00in /  0mm
23:29 51.6 °F /  10.9 °C 39.8 °F /  4.3 °C 30.00in /  1015.8hPa NE 1.0mph /  1.6km/h 4.0mph /  6.4km/h 64% 0.00in /  0mm
23:34 51.5 °F /  10.8 °C 40.1 °F /  4.5 °C 30.01in /  1016.1hPa NE 2.0mph /  3.2km/h 4.0mph /  6.4km/h 65% 0.00in /  0mm
23:39 51.4 °F /  10.8 °C 40.0 °F /  4.4 °C 30.01in /  1016.1hPa NE 1.0mph /  1.6km/h 3.0mph /  4.8km/h 65% 0.00in /  0mm
23:44 51.4 °F /  10.8 °C 40.0 °F /  4.4 °C 30.01in /  1016.1hPa NE 2.0mph /  3.2km/h 5.0mph /  8km/h 65% 0.00in /  0mm
23:49 51.3 °F /  10.7 °C 39.9 °F /  4.4 °C 30.01in /  1016.1hPa ENE 2.0mph /  3.2km/h 6.0mph /  9.7km/h 65% 0.00in /  0mm
23:54 51.2 °F /  10.7 °C 40.2 °F /  4.6 °C 30.00in /  1015.8hPa ENE 2.0mph /  3.2km/h 5.0mph /  8km/h 66% 0.00in /  0mm
23:59 51.2 °F /  10.7 °C 40.2 °F /  4.6 °C 30.01in /  1016.1hPa NE 2.0mph /  3.2km/h 5.0mph /  8km/h 66% 0.00in /  0mm
Buffalo, New York, USA
Compliments of Weather Underground - 2.5 mb